Time;durP1;ratioP1;P1;durP2;ratioP2;P2;SDS_P1;SDS_P2;PMS_P1;PMS_P2;Temp;Humidity;BMP_temperature;BMP_pressure;BME280_temperature;BME280_humidity;BME280_pressure;Samples;Min_cycle;Max_cycle;Signal;HPM_P1;HPM_P2
2023/09/16 00:01:18;;;;;;;;;;;18.10;99.90;;;;;;5048414;28;20427;-79
2023/09/16 00:03:45;;;;;;;;;;;18.10;99.90;;;;;;5048952;28;19925;-79
2023/09/16 00:06:12;;;;;;;;;;;18.10;99.90;;;;;;5052079;28;19940;-79
2023/09/16 00:08:39;;;;;;;;;;;18.00;99.90;;;;;;5045464;28;19925;-79
2023/09/16 00:11:09;;;;;;;;;;;18.00;99.90;;;;;;5047621;28;19983;-79
2023/09/16 00:13:36;;;;;;;;;;;18.00;99.90;;;;;;5040072;28;19925;-79
2023/09/16 00:16:04;;;;;;;;;;;18.00;99.90;;;;;;5029687;28;19971;-79
2023/09/16 00:18:31;;;;;;;;;;;18.00;99.90;;;;;;5050720;28;19986;-79
2023/09/16 00:20:58;;;;;;;;;;;18.00;99.90;;;;;;5051197;28;19932;-79
2023/09/16 00:23:25;;;;;;;;;;;18.00;99.90;;;;;;5044847;28;19995;-76
2023/09/16 00:25:52;;;;;;;;;;;17.90;99.90;;;;;;5047403;28;19979;-79
2023/09/16 00:28:18;;;;;;;;;;;17.90;99.90;;;;;;5030658;28;19925;-77
2023/09/16 00:30:45;;;;;;;;;;;17.90;99.90;;;;;;5047766;28;19929;-79
2023/09/16 00:33:12;;;;;;;;;;;17.90;99.90;;;;;;5048831;28;20340;-79
2023/09/16 00:35:39;;;;;;;;;;;17.90;99.90;;;;;;5048316;28;19933;-78
2023/09/16 00:38:05;;;;;;;;;;;17.90;99.90;;;;;;5043312;28;19979;-78
2023/09/16 00:40:32;;;;;;;;;;;17.90;99.90;;;;;;5045701;28;19978;-79
2023/09/16 00:42:59;;;;;;;;;;;17.90;99.90;;;;;;5040096;28;20359;-78
2023/09/16 00:45:25;;;;;;;;;;;17.80;99.90;;;;;;5027866;28;19925;-78
2023/09/16 00:47:52;;;;;;;;;;;17.90;99.90;;;;;;5049910;28;19925;-78
2023/09/16 00:50:19;;;;;;;;;;;17.80;99.90;;;;;;5048677;28;20348;-78
2023/09/16 00:52:50;;;;;;;;;;;17.80;99.90;;;;;;5042980;28;19976;-78
2023/09/16 00:55:17;;;;;;;;;;;17.80;99.90;;;;;;5047264;28;19925;-77
2023/09/16 00:57:47;;;;;;;;;;;17.80;99.90;;;;;;5041343;28;20392;-78
2023/09/16 01:00:14;;;;;;;;;;;17.80;99.90;;;;;;5046351;28;20079;-78
2023/09/16 01:02:41;;;;;;;;;;;17.80;99.90;;;;;;5052584;28;20026;-77
2023/09/16 01:05:14;;;;;;;;;;;17.70;99.90;;;;;;5055648;28;19948;-77
2023/09/16 01:07:42;;;;;;;;;;;17.80;99.90;;;;;;5041992;28;19926;-77
2023/09/16 01:10:11;;;;;;;;;;;17.70;99.90;;;;;;5036492;28;19925;-77
2023/09/16 01:12:38;;;;;;;;;;;17.70;99.90;;;;;;5039279;28;19975;-77
2023/09/16 01:15:06;;;;;;;;;;;17.70;99.90;;;;;;5051113;28;20258;-77
2023/09/16 01:17:59;;;;;;;;;;;17.70;99.90;;;;;;5032798;28;20014;-78
2023/09/16 01:20:28;;;;;;;;;;;17.70;99.90;;;;;;4998931;28;19929;-79
2023/09/16 01:22:55;;;;;;;;;;;17.70;99.90;;;;;;5022008;28;19925;-78
2023/09/16 01:25:24;;;;;;;;;;;17.70;99.90;;;;;;5045242;28;19932;-77
2023/09/16 01:27:51;;;;;;;;;;;17.60;99.90;;;;;;5039968;28;19928;-79
2023/09/16 01:30:17;;;;;;;;;;;17.60;99.90;;;;;;5042638;28;19925;-78
2023/09/16 01:32:56;;;;;;;;;;;17.60;99.90;;;;;;5046197;28;20308;-78
2023/09/16 01:35:25;;;;;;;;;;;17.60;99.90;;;;;;5047687;28;20406;-78
2023/09/16 01:37:52;;;;;;;;;;;17.60;99.90;;;;;;5039875;28;20404;-78
2023/09/16 01:40:21;;;;;;;;;;;17.60;99.90;;;;;;5045647;28;19925;-77
2023/09/16 01:42:48;;;;;;;;;;;17.60;99.90;;;;;;5040212;28;19970;-78
2023/09/16 01:45:15;;;;;;;;;;;17.60;99.90;;;;;;5047114;28;19928;-77
2023/09/16 01:47:42;;;;;;;;;;;17.60;99.90;;;;;;5047547;28;19925;-78
2023/09/16 01:50:09;;;;;;;;;;;17.60;99.90;;;;;;5030625;28;19968;-78
2023/09/16 01:52:36;;;;;;;;;;;17.60;99.90;;;;;;5039143;28;19979;-79
2023/09/16 01:55:02;;;;;;;;;;;17.50;99.90;;;;;;5042688;28;19979;-78
2023/09/16 01:57:29;;;;;;;;;;;17.50;99.90;;;;;;5047421;28;19931;-79
2023/09/16 01:59:56;;;;;;;;;;;17.50;99.90;;;;;;5047397;28;20023;-79
2023/09/16 02:02:22;;;;;;;;;;;17.50;99.90;;;;;;5045204;28;19972;-79
2023/09/16 02:04:49;;;;;;;;;;;17.50;99.90;;;;;;5044981;28;19976;-78
2023/09/16 02:07:16;;;;;;;;;;;17.50;99.90;;;;;;5039539;28;19932;-79
2023/09/16 02:09:42;;;;;;;;;;;17.50;99.90;;;;;;5044966;28;19929;-78
2023/09/16 02:12:09;;;;;;;;;;;17.50;99.90;;;;;;5045961;28;19925;-78
2023/09/16 02:14:37;;;;;;;;;;;17.50;99.90;;;;;;5046684;28;20018;-78
2023/09/16 02:17:05;;;;;;;;;;;17.50;99.90;;;;;;5042262;28;19925;-78
2023/09/16 02:19:32;;;;;;;;;;;17.50;99.90;;;;;;5043357;28;20383;-77
2023/09/16 02:21:59;;;;;;;;;;;17.50;99.90;;;;;;5037303;28;19928;-77
2023/09/16 02:24:26;;;;;;;;;;;17.50;99.90;;;;;;5043511;28;20370;-78
2023/09/16 02:26:52;;;;;;;;;;;17.40;99.90;;;;;;5044947;28;19929;-77
2023/09/16 02:29:19;;;;;;;;;;;17.40;99.90;;;;;;5046497;28;19929;-78
2023/09/16 02:31:46;;;;;;;;;;;17.40;99.90;;;;;;5042462;28;19952;-78
2023/09/16 02:34:12;;;;;;;;;;;17.40;99.90;;;;;;5043543;28;19925;-78
2023/09/16 02:36:39;;;;;;;;;;;17.40;99.90;;;;;;5041072;28;19947;-78
2023/09/16 02:39:06;;;;;;;;;;;17.40;99.90;;;;;;5040451;28;19929;-77
2023/09/16 02:41:32;;;;;;;;;;;17.40;99.90;;;;;;5047691;28;20507;-78
2023/09/16 02:43:59;;;;;;;;;;;17.40;99.90;;;;;;5046135;28;19956;-78
2023/09/16 02:46:25;;;;;;;;;;;17.30;99.90;;;;;;5041354;28;19962;-78
2023/09/16 02:48:52;;;;;;;;;;;17.40;99.90;;;;;;5042980;28;19925;-78
2023/09/16 02:51:19;;;;;;;;;;;17.40;99.90;;;;;;5039505;28;19925;-78
2023/09/16 02:53:45;;;;;;;;;;;17.40;99.90;;;;;;5041650;28;19979;-78
2023/09/16 02:56:12;;;;;;;;;;;17.30;99.90;;;;;;5044990;28;20432;-79
2023/09/16 02:58:38;;;;;;;;;;;17.30;99.90;;;;;;5046422;28;19925;-78
2023/09/16 03:01:10;;;;;;;;;;;17.30;99.90;;;;;;5038786;28;19963;-78
2023/09/16 03:03:37;;;;;;;;;;;17.30;99.90;;;;;;5045081;28;19972;-78
2023/09/16 03:06:04;;;;;;;;;;;17.30;99.90;;;;;;5042763;28;19925;-77
2023/09/16 03:08:30;;;;;;;;;;;17.30;99.90;;;;;;5051735;28;19983;-77
2023/09/16 03:11:02;;;;;;;;;;;17.30;99.90;;;;;;5051460;28;19929;-77
2023/09/16 03:13:28;;;;;;;;;;;17.30;99.90;;;;;;5030487;28;19925;-78
2023/09/16 03:16:31;;;;;;;;;;;17.30;99.90;;;;;;5037196;28;19979;-78
2023/09/16 03:18:58;;;;;;;;;;;17.20;99.90;;;;;;4962438;28;20369;-78
2023/09/16 03:21:25;;;;;;;;;;;17.20;99.90;;;;;;5023358;28;19932;-78
2023/09/16 03:23:52;;;;;;;;;;;17.20;99.90;;;;;;5042740;28;19960;-77
2023/09/16 03:26:19;;;;;;;;;;;17.20;99.90;;;;;;5030988;28;19947;-77
2023/09/16 03:28:45;;;;;;;;;;;17.20;99.90;;;;;;5046509;28;19928;-78
2023/09/16 03:31:14;;;;;;;;;;;17.20;99.90;;;;;;5036873;28;19960;-78
2023/09/16 03:33:40;;;;;;;;;;;17.20;99.90;;;;;;5044734;28;19936;-78
2023/09/16 03:36:07;;;;;;;;;;;17.10;99.90;;;;;;5039093;28;19925;-78
2023/09/16 03:38:35;;;;;;;;;;;17.10;99.90;;;;;;5039064;28;20335;-78
2023/09/16 03:41:01;;;;;;;;;;;17.10;99.90;;;;;;5043024;28;19929;-77
2023/09/16 03:43:28;;;;;;;;;;;17.10;99.90;;;;;;5047283;28;19933;-79
2023/09/16 03:45:55;;;;;;;;;;;17.10;99.90;;;;;;5036651;28;20024;-78
2023/09/16 03:48:21;;;;;;;;;;;17.10;99.90;;;;;;5042632;28;19925;-78
2023/09/16 03:50:48;;;;;;;;;;;17.10;99.90;;;;;;5022816;28;19925;-77
2023/09/16 03:53:15;;;;;;;;;;;17.10;99.90;;;;;;5027214;28;19925;-78
2023/09/16 03:55:48;;;;;;;;;;;17.10;99.90;;;;;;5042727;28;19929;-78
2023/09/16 03:58:15;;;;;;;;;;;17.10;99.90;;;;;;5044301;28;19925;-78
2023/09/16 04:00:42;;;;;;;;;;;17.10;99.90;;;;;;5037607;28;19983;-77
2023/09/16 04:03:08;;;;;;;;;;;17.00;99.90;;;;;;5039490;28;19925;-78
2023/09/16 04:05:36;;;;;;;;;;;17.00;99.90;;;;;;5042449;28;20008;-78
2023/09/16 04:08:02;;;;;;;;;;;17.00;99.90;;;;;;5046803;28;19925;-78
2023/09/16 04:10:29;;;;;;;;;;;17.00;99.90;;;;;;5045006;28;19932;-77
2023/09/16 04:12:56;;;;;;;;;;;17.00;99.90;;;;;;5044997;28;19971;-78
2023/09/16 04:15:22;;;;;;;;;;;17.00;99.90;;;;;;5040935;28;20296;-78
2023/09/16 04:17:51;;;;;;;;;;;17.00;99.90;;;;;;5038455;28;20435;-78
2023/09/16 04:20:19;;;;;;;;;;;17.00;99.90;;;;;;5042238;28;20367;-77
2023/09/16 04:22:46;;;;;;;;;;;16.90;99.90;;;;;;5048946;28;19925;-79
2023/09/16 04:25:13;;;;;;;;;;;16.90;99.90;;;;;;5044470;28;19978;-78
2023/09/16 04:27:39;;;;;;;;;;;16.90;99.90;;;;;;5047922;28;19971;-78
2023/09/16 04:30:06;;;;;;;;;;;16.90;99.90;;;;;;5041414;28;20436;-78
2023/09/16 04:32:33;;;;;;;;;;;16.90;99.90;;;;;;5065923;22;19925;-84
2023/09/16 04:35:00;;;;;;;;;;;16.80;99.90;;;;;;5041612;28;19964;-84
2023/09/16 04:37:26;;;;;;;;;;;16.80;99.90;;;;;;5041841;28;19921;-85
2023/09/16 04:39:53;;;;;;;;;;;16.90;99.90;;;;;;5039111;28;19950;-84
2023/09/16 04:42:20;;;;;;;;;;;16.80;99.90;;;;;;5039814;28;19976;-83
2023/09/16 04:44:48;;;;;;;;;;;16.80;99.90;;;;;;5034464;28;19929;-84
2023/09/16 04:47:15;;;;;;;;;;;16.80;99.90;;;;;;5035776;28;19929;-85
2023/09/16 04:49:46;;;;;;;;;;;16.70;99.90;;;;;;5034532;28;19939;-84
2023/09/16 04:52:12;;;;;;;;;;;16.70;99.90;;;;;;5034177;28;20020;-84
2023/09/16 04:54:40;;;;;;;;;;;16.70;99.90;;;;;;5030577;28;20019;-84
2023/09/16 04:57:07;;;;;;;;;;;16.70;99.90;;;;;;5026225;28;19996;-83
2023/09/16 04:59:34;;;;;;;;;;;16.70;99.90;;;;;;5034110;28;20031;-84
2023/09/16 05:02:00;;;;;;;;;;;16.70;99.90;;;;;;5033495;28;19925;-84
2023/09/16 05:04:27;;;;;;;;;;;16.60;99.90;;;;;;5033838;28;20015;-84
2023/09/16 05:06:54;;;;;;;;;;;16.60;99.90;;;;;;5034097;28;19925;-84
2023/09/16 05:09:21;;;;;;;;;;;16.60;99.90;;;;;;5036133;28;19936;-82
2023/09/16 05:11:48;;;;;;;;;;;16.60;99.90;;;;;;5033049;28;19963;-84
2023/09/16 05:14:15;;;;;;;;;;;16.60;99.90;;;;;;5035104;28;20008;-83
2023/09/16 05:16:42;;;;;;;;;;;16.60;99.90;;;;;;5034795;28;19932;-84
2023/09/16 05:19:09;;;;;;;;;;;16.50;99.90;;;;;;5035106;28;20351;-84
2023/09/16 05:21:35;;;;;;;;;;;16.50;99.90;;;;;;5034280;28;19987;-83
2023/09/16 05:24:02;;;;;;;;;;;16.50;99.90;;;;;;5035685;28;19929;-85
2023/09/16 05:26:30;;;;;;;;;;;16.50;99.90;;;;;;5035671;28;19932;-82
2023/09/16 05:28:57;;;;;;;;;;;16.50;99.90;;;;;;5034759;28;19925;-84
2023/09/16 05:31:24;;;;;;;;;;;16.50;99.90;;;;;;5034140;28;19929;-84
2023/09/16 05:33:51;;;;;;;;;;;16.60;99.90;;;;;;5035056;28;19925;-85
2023/09/16 05:36:18;;;;;;;;;;;16.50;99.90;;;;;;5033884;28;19925;-84
2023/09/16 05:38:45;;;;;;;;;;;16.50;99.90;;;;;;5036393;28;19929;-83
2023/09/16 05:41:12;;;;;;;;;;;16.50;99.90;;;;;;5037115;28;20021;-84
2023/09/16 05:43:38;;;;;;;;;;;16.50;99.90;;;;;;5034507;28;20467;-83
2023/09/16 05:46:06;;;;;;;;;;;16.50;99.90;;;;;;5033155;28;19969;-83
2023/09/16 05:48:33;;;;;;;;;;;16.60;99.90;;;;;;5035276;28;19925;-84
2023/09/16 05:51:00;;;;;;;;;;;16.60;99.90;;;;;;5034321;28;21812;-84
2023/09/16 05:53:27;;;;;;;;;;;16.60;99.90;;;;;;5035661;28;19925;-84
2023/09/16 05:55:53;;;;;;;;;;;16.60;99.90;;;;;;5036898;28;19964;-84
2023/09/16 05:58:20;;;;;;;;;;;16.60;99.90;;;;;;5036488;28;19960;-83
2023/09/16 06:00:54;;;;;;;;;;;16.70;99.90;;;;;;5036858;28;19925;-84
2023/09/16 06:03:21;;;;;;;;;;;16.70;99.90;;;;;;5036322;28;19932;-84
2023/09/16 06:05:48;;;;;;;;;;;16.70;99.90;;;;;;5036600;28;20308;-85
2023/09/16 06:08:15;;;;;;;;;;;16.70;99.90;;;;;;5037191;28;19928;-83
2023/09/16 06:10:41;;;;;;;;;;;16.70;99.90;;;;;;5035445;28;19925;-84
2023/09/16 06:13:08;;;;;;;;;;;16.80;99.90;;;;;;5035854;28;19957;-84
2023/09/16 06:15:35;;;;;;;;;;;16.80;99.90;;;;;;5034257;28;19929;-84
2023/09/16 06:18:01;;;;;;;;;;;16.80;99.90;;;;;;5033701;28;20907;-84
2023/09/16 06:20:28;;;;;;;;;;;16.90;99.90;;;;;;5033881;28;19952;-83
2023/09/16 06:22:57;;;;;;;;;;;17.00;99.90;;;;;;5035617;28;19929;-84
2023/09/16 06:25:23;;;;;;;;;;;16.90;99.90;;;;;;5035709;28;19995;-84
2023/09/16 06:27:50;;;;;;;;;;;16.90;99.90;;;;;;5035655;28;19975;-84
2023/09/16 06:30:17;;;;;;;;;;;17.00;99.90;;;;;;5037858;28;19936;-84
2023/09/16 06:32:43;;;;;;;;;;;17.10;99.90;;;;;;5037085;28;19925;-84
2023/09/16 06:35:10;;;;;;;;;;;17.10;99.90;;;;;;5035052;28;19999;-84
2023/09/16 06:37:37;;;;;;;;;;;17.10;99.90;;;;;;5037684;28;19929;-84
2023/09/16 06:40:03;;;;;;;;;;;17.10;99.90;;;;;;5039815;28;19925;-84
2023/09/16 06:42:30;;;;;;;;;;;17.20;99.90;;;;;;5035942;28;19939;-84
2023/09/16 06:44:57;;;;;;;;;;;17.20;99.90;;;;;;5036310;28;20012;-83
2023/09/16 06:47:26;;;;;;;;;;;17.30;99.90;;;;;;5036442;28;19925;-84
2023/09/16 06:49:54;;;;;;;;;;;17.40;99.90;;;;;;5036891;28;19925;-83
2023/09/16 06:52:26;;;;;;;;;;;17.50;99.90;;;;;;5036245;28;19929;-84
2023/09/16 06:54:53;;;;;;;;;;;17.50;99.90;;;;;;5036291;28;19971;-84
2023/09/16 06:57:20;;;;;;;;;;;17.60;99.90;;;;;;5036204;28;19925;-83
2023/09/16 06:59:49;;;;;;;;;;;17.70;99.90;;;;;;5037972;28;19968;-85
2023/09/16 07:02:16;;;;;;;;;;;17.80;99.90;;;;;;5034529;28;20396;-84
2023/09/16 07:04:45;;;;;;;;;;;17.90;99.90;;;;;;5037601;28;19925;-84
2023/09/16 07:07:12;;;;;;;;;;;17.90;99.90;;;;;;5035643;28;19925;-84
2023/09/16 07:09:39;;;;;;;;;;;18.10;99.90;;;;;;5036788;28;20015;-84
2023/09/16 07:12:06;;;;;;;;;;;18.20;99.90;;;;;;5033020;28;19937;-84
2023/09/16 07:14:37;;;;;;;;;;;18.30;99.90;;;;;;5036803;28;19925;-84
2023/09/16 07:17:04;;;;;;;;;;;18.40;99.90;;;;;;5040624;28;19925;-84
2023/09/16 07:19:32;;;;;;;;;;;18.60;99.90;;;;;;5036636;28;20276;-84
2023/09/16 07:21:59;;;;;;;;;;;18.70;99.90;;;;;;5035649;28;19957;-84
2023/09/16 07:24:26;;;;;;;;;;;18.90;99.90;;;;;;5038665;28;19944;-83
2023/09/16 07:26:53;;;;;;;;;;;19.00;99.90;;;;;;5034574;28;19925;-85
2023/09/16 07:29:19;;;;;;;;;;;19.10;99.90;;;;;;5035668;28;19925;-84
2023/09/16 07:31:46;;;;;;;;;;;19.20;99.90;;;;;;5036560;28;20354;-84
2023/09/16 07:34:15;;;;;;;;;;;19.30;99.90;;;;;;5038650;28;20458;-84
2023/09/16 07:36:42;;;;;;;;;;;19.40;99.90;;;;;;5036135;28;20431;-84
2023/09/16 07:39:08;;;;;;;;;;;19.60;99.90;;;;;;5037365;28;20384;-84
2023/09/16 07:41:35;;;;;;;;;;;19.60;99.90;;;;;;5037477;28;19925;-85
2023/09/16 07:44:05;;;;;;;;;;;19.70;99.90;;;;;;5037545;28;19936;-84
2023/09/16 07:46:32;;;;;;;;;;;19.80;99.90;;;;;;5037453;28;19925;-85
2023/09/16 07:48:59;;;;;;;;;;;19.90;99.90;;;;;;5036655;28;20020;-84
2023/09/16 07:51:26;;;;;;;;;;;20.00;99.90;;;;;;5036068;28;20300;-84
2023/09/16 07:53:53;;;;;;;;;;;20.20;99.90;;;;;;5037108;28;19956;-84
2023/09/16 07:56:20;;;;;;;;;;;20.30;99.90;;;;;;5036698;28;19956;-84
2023/09/16 07:58:47;;;;;;;;;;;20.40;99.90;;;;;;5035691;28;19948;-83
2023/09/16 08:01:14;;;;;;;;;;;20.40;99.90;;;;;;5040341;28;19936;-84
2023/09/16 08:03:42;;;;;;;;;;;20.50;99.90;;;;;;5039410;28;19932;-85
2023/09/16 08:06:09;;;;;;;;;;;20.50;99.90;;;;;;5040675;28;19925;-85
2023/09/16 08:08:36;;;;;;;;;;;20.70;99.90;;;;;;5040987;28;19972;-84
2023/09/16 08:11:02;;;;;;;;;;;20.70;99.90;;;;;;5040810;28;19926;-85
2023/09/16 08:13:29;;;;;;;;;;;20.70;99.90;;;;;;5039673;28;19935;-85
2023/09/16 08:15:56;;;;;;;;;;;20.70;99.90;;;;;;5038227;28;20320;-85
2023/09/16 08:18:22;;;;;;;;;;;20.80;99.90;;;;;;5040462;28;19929;-85
2023/09/16 08:20:49;;;;;;;;;;;21.00;99.90;;;;;;5039929;28;19932;-84
2023/09/16 08:23:16;;;;;;;;;;;21.00;99.90;;;;;;5040006;28;20344;-85
2023/09/16 08:25:42;;;;;;;;;;;21.00;99.90;;;;;;5040862;28;19975;-84
2023/09/16 08:28:09;;;;;;;;;;;21.10;99.90;;;;;;5040740;28;19926;-85
2023/09/16 08:30:36;;;;;;;;;;;21.20;99.90;;;;;;5038882;28;20335;-84
2023/09/16 08:33:02;;;;;;;;;;;21.20;99.90;;;;;;5040424;28;19925;-84
2023/09/16 08:35:29;;;;;;;;;;;21.20;99.90;;;;;;5042169;28;19929;-86
2023/09/16 08:37:58;;;;;;;;;;;21.20;99.90;;;;;;5039640;28;19925;-85
2023/09/16 08:40:25;;;;;;;;;;;21.30;99.90;;;;;;5041472;28;19932;-84
2023/09/16 08:42:58;;;;;;;;;;;21.20;99.90;;;;;;5046718;28;19925;-85
2023/09/16 08:45:26;;;;;;;;;;;21.30;99.90;;;;;;5044633;28;19925;-84
2023/09/16 08:47:55;;;;;;;;;;;21.40;99.90;;;;;;5043647;28;19988;-85
2023/09/16 08:50:22;;;;;;;;;;;21.40;99.90;;;;;;5045219;28;19991;-84
2023/09/16 08:52:49;;;;;;;;;;;21.40;99.90;;;;;;5046045;28;19959;-85
2023/09/16 08:55:18;;;;;;;;;;;21.40;99.90;;;;;;5046603;28;19971;-85
2023/09/16 08:57:46;;;;;;;;;;;21.40;99.90;;;;;;5044517;28;19925;-84
2023/09/16 09:00:14;;;;;;;;;;;21.50;99.90;;;;;;5039372;28;19933;-84
2023/09/16 09:02:40;;;;;;;;;;;21.40;99.90;;;;;;5036168;28;19988;-85
2023/09/16 09:05:07;;;;;;;;;;;21.60;99.90;;;;;;5040480;28;19929;-84
2023/09/16 09:07:35;;;;;;;;;;;21.60;99.90;;;;;;5037645;28;19932;-85
2023/09/16 09:10:03;;;;;;;;;;;21.60;99.90;;;;;;5052383;28;19928;-86
2023/09/16 09:12:30;;;;;;;;;;;21.70;99.90;;;;;;5038622;28;19929;-85
2023/09/16 09:14:57;;;;;;;;;;;21.80;99.90;;;;;;5039654;28;19955;-85
2023/09/16 09:17:24;;;;;;;;;;;21.80;99.90;;;;;;5040851;28;20324;-85
2023/09/16 09:19:51;;;;;;;;;;;21.90;99.90;;;;;;5040957;28;20008;-85
2023/09/16 09:22:18;;;;;;;;;;;22.00;99.90;;;;;;5039343;28;19976;-85
2023/09/16 09:24:45;;;;;;;;;;;22.20;99.90;;;;;;5040301;28;19972;-84
2023/09/16 09:27:12;;;;;;;;;;;22.30;99.90;;;;;;5036850;28;19925;-84
2023/09/16 09:29:40;;;;;;;;;;;22.40;99.90;;;;;;5040832;28;19944;-84
2023/09/16 09:32:09;;;;;;;;;;;22.50;99.90;;;;;;5040040;28;19960;-84
2023/09/16 09:34:36;;;;;;;;;;;22.50;99.90;;;;;;5039048;28;19925;-85
2023/09/16 09:37:02;;;;;;;;;;;22.60;99.90;;;;;;5038647;28;20338;-84
2023/09/16 09:39:31;;;;;;;;;;;22.60;99.90;;;;;;5039363;28;19929;-85
2023/09/16 09:41:57;;;;;;;;;;;22.70;99.90;;;;;;5040881;28;19928;-86
2023/09/16 09:44:24;;;;;;;;;;;22.80;99.90;;;;;;5038519;28;19925;-86
2023/09/16 09:46:51;;;;;;;;;;;22.90;99.90;;;;;;5038970;28;19925;-84
2023/09/16 09:49:19;;;;;;;;;;;23.10;99.90;;;;;;5041026;28;19940;-85
2023/09/16 09:51:48;;;;;;;;;;;23.20;99.90;;;;;;5041274;28;19925;-84
2023/09/16 09:54:15;;;;;;;;;;;23.30;99.90;;;;;;5040490;28;19932;-83
2023/09/16 09:56:42;;;;;;;;;;;23.40;99.90;;;;;;5035865;28;20440;-85
2023/09/16 09:59:09;;;;;;;;;;;23.40;99.90;;;;;;5041111;28;19948;-84
2023/09/16 10:01:38;;;;;;;;;;;23.40;99.90;;;;;;5038384;28;19925;-85
2023/09/16 10:04:05;;;;;;;;;;;23.50;99.90;;;;;;5035756;28;19929;-85
2023/09/16 10:06:32;;;;;;;;;;;23.50;99.90;;;;;;5042074;28;20367;-85
2023/09/16 10:08:58;;;;;;;;;;;23.50;99.90;;;;;;5041755;28;19925;-87
2023/09/16 10:11:28;;;;;;;;;;;23.40;99.90;;;;;;5041019;28;19925;-86
2023/09/16 10:13:55;;;;;;;;;;;23.40;99.90;;;;;;5043439;28;19972;-85
2023/09/16 10:16:22;;;;;;;;;;;23.30;99.90;;;;;;5042041;28;19925;-85
2023/09/16 10:18:49;;;;;;;;;;;23.20;99.90;;;;;;5040078;28;19993;-85
2023/09/16 10:21:16;;;;;;;;;;;23.10;99.90;;;;;;5041535;28;19998;-85
2023/09/16 10:23:43;;;;;;;;;;;23.10;99.90;;;;;;5041371;28;19925;-85
2023/09/16 10:26:10;;;;;;;;;;;23.10;99.90;;;;;;5041359;28;19929;-85
2023/09/16 10:28:42;;;;;;;;;;;23.10;99.90;;;;;;5041923;28;19948;-85
2023/09/16 10:31:09;;;;;;;;;;;23.10;99.90;;;;;;5041641;28;19925;-85
2023/09/16 10:33:36;;;;;;;;;;;23.10;99.90;;;;;;5042513;28;20406;-85
2023/09/16 10:36:04;;;;;;;;;;;23.10;99.90;;;;;;5038494;28;19925;-85
2023/09/16 10:38:31;;;;;;;;;;;23.10;99.90;;;;;;5041102;28;20437;-85
2023/09/16 10:40:58;;;;;;;;;;;23.00;99.90;;;;;;5039209;28;19929;-84
2023/09/16 10:43:25;;;;;;;;;;;23.00;99.90;;;;;;5040570;28;19948;-85
2023/09/16 10:45:52;;;;;;;;;;;23.00;99.90;;;;;;5039903;28;19925;-85
2023/09/16 10:48:22;;;;;;;;;;;22.90;99.90;;;;;;5040822;28;19932;-84
2023/09/16 10:50:50;;;;;;;;;;;23.00;99.90;;;;;;5037319;28;19929;-85
2023/09/16 10:53:18;;;;;;;;;;;22.90;99.90;;;;;;5039931;28;20458;-85
2023/09/16 10:55:49;;;;;;;;;;;22.90;99.90;;;;;;5037576;28;19948;-85
2023/09/16 10:58:39;;;;;;;;;;;22.90;99.90;;;;;;5051472;28;19948;-85
2023/09/16 11:01:06;;;;;;;;;;;22.90;99.90;;;;;;5036102;28;19925;-84
2023/09/16 11:03:34;;;;;;;;;;;22.90;99.90;;;;;;5038518;28;20442;-85
2023/09/16 11:06:01;;;;;;;;;;;22.90;99.90;;;;;;5038873;28;19937;-84
2023/09/16 11:08:28;;;;;;;;;;;22.90;99.90;;;;;;5039154;28;19929;-84
2023/09/16 11:10:58;;;;;;;;;;;23.00;99.90;;;;;;5037360;28;19933;-85
2023/09/16 11:13:26;;;;;;;;;;;23.00;99.90;;;;;;5037960;28;19994;-86
2023/09/16 11:15:56;;;;;;;;;;;23.10;99.90;;;;;;5039042;28;19925;-85
2023/09/16 11:18:23;;;;;;;;;;;23.10;99.90;;;;;;5039382;28;19929;-85
2023/09/16 11:20:50;;;;;;;;;;;23.20;99.90;;;;;;5040585;28;19978;-84
2023/09/16 11:23:17;;;;;;;;;;;23.30;99.90;;;;;;5037047;28;19948;-85
2023/09/16 11:25:44;;;;;;;;;;;23.40;99.90;;;;;;5035948;28;19925;-85
2023/09/16 11:28:12;;;;;;;;;;;23.50;99.90;;;;;;5034678;28;20035;-85
2023/09/16 11:30:38;;;;;;;;;;;23.70;99.90;;;;;;5032672;28;19929;-84
2023/09/16 11:33:25;;;;;;;;;;;23.90;99.90;;;;;;4975390;28;1741551;-85
2023/09/16 11:36:11;;;;;;;;;;;24.00;99.90;;;;;;5041400;28;19940;-86
2023/09/16 11:38:38;;;;;;;;;;;24.10;99.90;;;;;;5042004;28;19925;-84
2023/09/16 11:41:09;;;;;;;;;;;24.30;99.90;;;;;;5041226;28;19929;-84
2023/09/16 11:43:36;;;;;;;;;;;24.40;99.90;;;;;;5041401;28;19925;-85
2023/09/16 11:46:04;;;;;;;;;;;24.50;99.90;;;;;;5041861;28;19981;-85
2023/09/16 11:48:57;;;;;;;;;;;24.60;99.90;;;;;;5038729;28;19980;-85
2023/09/16 11:51:25;;;;;;;;;;;24.70;99.90;;;;;;5036673;28;19973;-85
2023/09/16 11:53:53;;;;;;;;;;;24.80;99.90;;;;;;5039736;28;20439;-84
2023/09/16 11:56:21;;;;;;;;;;;24.90;99.90;;;;;;5043718;28;19926;-84
2023/09/16 11:58:48;;;;;;;;;;;25.00;99.90;;;;;;5041530;28;19984;-85
2023/09/16 12:01:20;;;;;;;;;;;25.10;99.90;;;;;;5042321;28;20104;-85
2023/09/16 12:03:47;;;;;;;;;;;25.20;99.90;;;;;;5041215;28;19925;-85
2023/09/16 12:06:14;;;;;;;;;;;25.30;99.90;;;;;;5040860;28;19925;-85
2023/09/16 12:08:42;;;;;;;;;;;25.30;99.90;;;;;;5040010;28;19925;-87
2023/09/16 12:11:09;;;;;;;;;;;25.40;99.90;;;;;;5039850;28;19990;-85
2023/09/16 12:13:39;;;;;;;;;;;25.50;99.90;;;;;;5039043;28;19925;-85
2023/09/16 12:16:06;;;;;;;;;;;25.50;99.90;;;;;;5039370;28;19925;-85
2023/09/16 12:18:33;;;;;;;;;;;25.60;99.90;;;;;;5040034;28;20543;-84
2023/09/16 12:21:00;;;;;;;;;;;25.60;99.90;;;;;;5041029;28;19947;-85
2023/09/16 12:23:28;;;;;;;;;;;25.60;99.90;;;;;;5041243;28;19925;-85
2023/09/16 12:25:54;;;;;;;;;;;25.70;99.90;;;;;;5041733;28;19925;-85
2023/09/16 12:28:22;;;;;;;;;;;25.80;99.90;;;;;;5042290;28;19933;-85
2023/09/16 12:30:51;;;;;;;;;;;25.80;99.90;;;;;;5043818;28;20350;-85
2023/09/16 12:33:19;;;;;;;;;;;25.90;99.90;;;;;;5042354;28;19932;-85
2023/09/16 12:35:46;;;;;;;;;;;26.00;99.90;;;;;;5043633;28;20448;-85
2023/09/16 12:38:16;;;;;;;;;;;26.10;99.90;;;;;;5041277;28;20308;-85
2023/09/16 12:40:48;;;;;;;;;;;26.10;99.90;;;;;;5043354;28;19995;-85
2023/09/16 12:43:15;;;;;;;;;;;26.20;99.90;;;;;;5039912;28;19925;-86
2023/09/16 12:45:41;;;;;;;;;;;26.20;99.90;;;;;;5043129;28;19925;-85
2023/09/16 12:48:09;;;;;;;;;;;26.30;99.90;;;;;;5044000;28;19929;-84
2023/09/16 12:50:37;;;;;;;;;;;26.30;99.90;;;;;;5040218;28;19925;-85
2023/09/16 12:53:04;;;;;;;;;;;26.30;99.90;;;;;;5040875;28;19980;-85
2023/09/16 12:55:31;;;;;;;;;;;26.40;99.90;;;;;;5035783;28;19979;-85
2023/09/16 12:57:57;;;;;;;;;;;26.30;99.90;;;;;;5042151;28;19925;-85
2023/09/16 13:00:26;;;;;;;;;;;26.30;99.90;;;;;;5039886;28;20051;-85
2023/09/16 13:02:53;;;;;;;;;;;26.30;99.90;;;;;;5040937;28;19932;-85
2023/09/16 13:05:20;;;;;;;;;;;26.30;99.90;;;;;;5041416;28;19971;-85
2023/09/16 13:07:50;;;;;;;;;;;26.30;99.90;;;;;;5038664;28;19957;-85
2023/09/16 13:10:18;;;;;;;;;;;26.30;99.90;;;;;;5039813;28;19925;-85
2023/09/16 13:12:45;;;;;;;;;;;26.30;99.90;;;;;;5040834;28;19960;-85
2023/09/16 13:15:20;;;;;;;;;;;26.30;99.90;;;;;;5042170;28;19925;-85
2023/09/16 13:17:49;;;;;;;;;;;26.30;99.90;;;;;;5032659;28;20200;-84
2023/09/16 13:20:16;;;;;;;;;;;26.20;99.90;;;;;;5042563;28;19925;-85
2023/09/16 13:22:44;;;;;;;;;;;26.10;99.90;;;;;;5042395;28;19979;-85
2023/09/16 13:25:26;;;;;;;;;;;26.10;99.90;;;;;;5042909;28;20392;-85
2023/09/16 13:27:54;;;;;;;;;;;26.10;99.90;;;;;;5040457;28;19925;-85
2023/09/16 13:30:21;;;;;;;;;;;26.00;99.90;;;;;;5045573;28;19925;-86
2023/09/16 13:32:52;;;;;;;;;;;26.00;99.90;;;;;;5042543;28;19971;-85
2023/09/16 13:35:19;;;;;;;;;;;26.00;99.90;;;;;;5041065;28;19925;-85
2023/09/16 13:37:45;;;;;;;;;;;26.00;99.90;;;;;;5039137;28;19975;-84
2023/09/16 13:40:16;;;;;;;;;;;26.00;99.90;;;;;;5037272;28;19932;-85
2023/09/16 13:42:42;;;;;;;;;;;25.90;99.90;;;;;;5037808;28;20443;-86
2023/09/16 13:45:09;;;;;;;;;;;25.90;99.90;;;;;;5037676;28;19925;-85
2023/09/16 13:47:36;;;;;;;;;;;25.90;99.90;;;;;;5037409;28;19925;-83
2023/09/16 13:50:04;;;;;;;;;;;25.80;99.90;;;;;;5040296;28;19968;-85
2023/09/16 13:52:31;;;;;;;;;;;25.80;99.90;;;;;;5036912;28;20365;-86
2023/09/16 13:54:57;;;;;;;;;;;25.70;99.90;;;;;;5036922;28;19925;-84
2023/09/16 13:57:24;;;;;;;;;;;25.60;99.90;;;;;;5038689;28;19925;-85
2023/09/16 13:59:51;;;;;;;;;;;25.50;99.90;;;;;;5037780;28;19925;-85
2023/09/16 14:02:17;;;;;;;;;;;25.50;99.90;;;;;;5037814;28;19982;-83
2023/09/16 14:04:44;;;;;;;;;;;25.50;99.90;;;;;;5037601;28;19925;-85
2023/09/16 14:07:11;;;;;;;;;;;25.40;99.90;;;;;;5039697;28;19936;-86
2023/09/16 14:09:38;;;;;;;;;;;25.30;99.90;;;;;;5040385;28;19985;-84
2023/09/16 14:12:04;;;;;;;;;;;25.30;99.90;;;;;;5040247;28;19929;-85
2023/09/16 14:14:31;;;;;;;;;;;25.30;99.90;;;;;;5038324;28;19994;-86
2023/09/16 14:16:58;;;;;;;;;;;25.30;99.90;;;;;;5038810;28;19929;-85
2023/09/16 14:19:25;;;;;;;;;;;25.30;99.90;;;;;;5039179;28;20358;-85